Horn Island Airport
YHID : now visible

Airfield :











YOU CAN JOIN US ON...

 
LOGIN :

Register | Disclaimer

   EN    FR    IT 

 









Legend :    VFR   Marginal VFR   IFR   Intensive IFR   Very Intensive IFR
Visi :
Ceiling :
>= 8 km
>= 3000ft
5 to 8 km
1000 to 3000 ft
1500m to 5 km
500 to 1000 ft
800 to 1500m
200 to 500 ft
< 800m
< 200 ft
Symbols :   Thunderstorms  Fog  Heavy snow  Heavy precipitations  Wind > 20 kt






- Airport Elevation : 43 ft
- IATA code : HID


YHID - Horn Island

CURRENT METAR :
  • 092130Z AUTO 17007KT 9999 // NCD 24/22 Q1013 RF00.0/000.0

EXPIRED METARs :
  • 092100Z AUTO 16007KT 9999 // SCT021 24/22 Q1012 RF00.0/000.0
  • 092030Z AUTO 16006KT 9999 // NCD 24/22 Q1012 RF00.0/000.0
  • 092000Z AUTO 16006KT 9999 // NCD 24/22 Q1012 RF00.0/000.0
  • 091930Z AUTO 15006KT 9999 // NCD 24/22 Q1011 RF00.0/000.0
  • 091900Z AUTO 15007KT 9999 // NCD 24/22 Q1011 RF00.0/000.0

TAF TAF YHID
Valid from the 09 at 18:00 until the 10 at 18:00 UTC


091700Z 0918/1018 13012KT 9999 SCT020
FM100000 12016KT 9999 SCT025
FM100800 13012KT 9999 -SHRA SCT020
YBBB FIR / Oceania



MET'MAP, your aeronautical weather chart ! - Copyright ORBIFLY December 2007 - Disclaimer

ORBIFLY MET'MAP TEAM :

Programming & Development : Alexandra Zaïnal
Original concept : Baudouin d'Aumeries
Technical & hardware support : Manuel Goepfert
Assistance : Marc-Olivier Méhu




SOURCES & CREDITS :

   NOAA       Earth
Advisory